Barcelona, Španija

05:10 PM CET on november 21, 2014 (GMT +0100)
Viladecans | Change Station
CLOSE
Current Station
Osebne vremenske postaje
Location: Viladecans, CATALUñA, CATALONIA
Višina: 100 ft
Nearby Weather Stations

Viš 100 ft 41.32 °N, 2.01 °E | Updated 14 seconds ago

Partly Cloudy
Delno oblacno
65.8 °F
Feels Like 65.8 °F
N
0.0
Veter Spremenljivo Veter od Vzhod
Gusts 1.0 mph

Danes
High -- | Low -- °F
--% Chance of Precip.
Yesterday
High -- | Low -- °F
Precip. -- v
7:46 AM 5:28 PM
Pojemajoči krajec, 1% visible
Zračni tlak 30.06 v
Vidljivost 6.2 milje
Oblaki Few 1800 ft
Rosišče 58 °F
Vlažnost 75%
Padavine 0.00 v
Snow Depth Not available.
UV 0 out of 12
Pollen Not available.
Air Quality Not available.
Flu Activity Not available.
METAR LEBL 211600Z 08004KT 9999 FEW018 19/15 Q1018 NOSIG

More Conditions Fewer Conditions

Zračni tlak 30.06 v
Vidljivost 6.2 milje
Oblaki Few 1800 ft
Rosišče 58 °F
Vlažnost 75%
Padavine 0.00 v
Snow Depth Not available.
UV 0 out of 12
Pollen Not available.
Air Quality Not available.
Flu Activity Not available.
METAR LEBL 211600Z 08004KT 9999 FEW018 19/15 Q1018 NOSIG

More Conditions Fewer Conditions

10-Day Weather Forecast

Almanac

Astronomija

Nov. 21, 2014 Rise Set
Actual Time
Civil Twilight
Nautical Twilight
Astronomical Twilight
Moon
Length Of Visible Light
Dolžina dneva
Tomorrow will be .
, % of the Moon is Illuminated

Današnji ekstremi

Country Highs Country Lows

Community

WunderPhotos

Upload Photos

1,772,679 photos uploaded!

WunderBlogs® & News

Nearby

Air Quality

  Air Quality AQ Index Pollutant
Not available.

Snow Depth

Station Depth Višina

Earthquake Activity

City Distance Mag. Time & Date
Minimum magnitude displayed is 2.5.

Coastal Water Temperatures

Mesto Temperatura

Nearby Weather Stations